Time;durP1;ratioP1;P1;durP2;ratioP2;P2;SDS_P1;SDS_P2;PMS_P1;PMS_P2;Temp;Humidity;BMP_temperature;BMP_pressure;BME280_temperature;BME280_humidity;BME280_pressure;Samples;Min_cycle;Max_cycle;Signal;HPM_P1;HPM_P2
2021/11/08 00:01:10;;;;;;;76.65;40.83;;;;;;;14.31;84.19;100351.06;5050781;28;20029;-21
2021/11/08 00:03:38;;;;;;;74.80;41.42;;;;;;;14.01;85.65;100352.00;5050949;28;20029;-21
2021/11/08 00:06:05;;;;;;;74.55;40.55;;;;;;;13.98;86.37;100344.44;5050340;28;20532;-21
2021/11/08 00:08:32;;;;;;;71.47;40.00;;;;;;;14.17;85.67;100349.69;5032763;28;20499;-21
2021/11/08 00:10:57;;;;;;;73.95;41.10;;;;;;;14.25;84.63;100349.31;5050393;28;20040;-21
2021/11/08 00:13:24;;;;;;;75.90;40.65;;;;;;;14.51;83.38;100350.66;5050438;28;20057;-22
2021/11/08 00:20:45;;;;;;;80.05;40.50;;;;;;;14.43;82.79;100334.94;5049631;28;20028;-21
2021/11/08 00:23:11;;;;;;;70.25;39.58;;;;;;;14.38;82.89;100330.25;5050513;28;20477;-21
2021/11/08 00:25:39;;;;;;;74.45;40.72;;;;;;;13.84;84.74;100321.63;5032271;28;20044;-21
2021/11/08 00:28:07;;;;;;;73.32;40.40;;;;;;;13.77;85.28;100339.66;5050082;28;20037;-21
2021/11/08 00:30:33;;;;;;;70.97;39.80;;;;;;;14.00;83.85;100328.13;5032294;28;20558;-21
2021/11/08 00:32:58;;;;;;;76.53;40.50;;;;;;;14.11;83.09;100313.06;5049727;28;20108;-28
2021/11/08 00:35:24;;;;;;;73.60;40.35;;;;;;;13.75;85.01;100325.69;5049999;28;20107;-22
2021/11/08 00:37:50;;;;;;;79.63;41.25;;;;;;;13.66;85.11;100328.72;5050190;28;20041;-22
2021/11/08 00:40:16;;;;;;;69.35;37.92;;;;;;;13.63;84.71;100321.16;5049670;28;20021;-21
2021/11/08 00:42:41;;;;;;;66.57;37.75;;;;;;;13.72;83.85;100315.44;5049726;28;20056;-21
2021/11/08 00:45:07;;;;;;;76.75;41.60;;;;;;;13.75;83.58;100323.84;5049690;28;20463;-21
2021/11/08 00:47:34;;;;;;;67.95;39.13;;;;;;;13.49;84.26;100311.72;5050012;28;20040;-21
2021/11/08 00:50:00;;;;;;;73.85;39.58;;;;;;;13.69;83.64;100315.91;5049604;28;20033;-21
2021/11/08 00:52:26;;;;;;;69.50;39.80;;;;;;;13.86;82.62;100306.09;5049331;28;20025;-21
2021/11/08 00:54:51;;;;;;;74.53;41.67;;;;;;;14.08;81.89;100298.28;5049530;28;20037;-21
2021/11/08 00:57:21;;;;;;;68.53;40.42;;;;;;;13.88;82.78;100284.44;5031615;28;20036;-21
2021/11/08 00:59:46;;;;;;;65.75;37.35;;;;;;;13.26;84.92;100299.88;5016468;28;20118;-21
2021/11/08 01:02:13;;;;;;;67.07;38.30;;;;;;;13.36;84.88;100291.31;5049020;28;20082;-21
2021/11/08 01:04:39;;;;;;;61.20;37.60;;;;;;;13.60;83.96;100281.41;5049320;28;20032;-21
2021/11/08 01:07:04;;;;;;;71.80;40.28;;;;;;;13.61;84.95;100296.44;5049314;28;20064;-21
2021/11/08 01:09:30;;;;;;;72.40;41.60;;;;;;;13.53;85.40;100291.44;5049491;28;20033;-21
2021/11/08 01:11:56;;;;;;;72.05;39.28;;;;;;;13.35;86.56;100283.50;5049109;28;20036;-22
2021/11/08 01:14:22;;;;;;;78.13;42.13;;;;;;;13.30;86.70;100270.81;5031307;28;20143;-20
2021/11/08 01:16:55;;;;;;;73.28;42.22;;;;;;;13.63;85.68;100297.03;5048121;28;20939;-23
2021/11/08 01:19:21;;;;;;;77.03;42.45;;;;;;;13.80;84.53;100290.97;5049329;28;20535;-21
2021/11/08 01:21:46;;;;;;;77.50;43.05;;;;;;;13.69;85.07;100286.41;5049200;28;20078;-21
2021/11/08 01:24:13;;;;;;;77.15;42.72;;;;;;;13.59;85.38;100279.78;5048749;28;20043;-21
2021/11/08 01:26:38;;;;;;;87.78;45.58;;;;;;;13.89;84.13;100276.13;5049355;28;20115;-21
2021/11/08 01:29:05;;;;;;;71.28;41.03;;;;;;;13.78;84.17;100288.50;5031425;28;20029;-22
2021/11/08 01:31:31;;;;;;;73.70;41.47;;;;;;;13.85;83.72;100277.66;5048906;28;20028;-21
2021/11/08 01:33:57;;;;;;;71.45;41.95;;;;;;;13.96;83.31;100274.16;5047923;28;20087;-22
2021/11/08 01:36:28;;;;;;;76.10;43.22;;;;;;;13.99;82.74;100273.66;5030853;28;20033;-21
2021/11/08 01:38:59;;;;;;;69.00;40.63;;;;;;;14.00;82.48;100267.28;5032096;28;20542;-21
2021/11/08 01:41:27;;;;;;;59.88;37.33;;;;;;;13.63;83.75;100264.88;5048710;28;20029;-21
2021/11/08 01:43:52;;;;;;;66.97;39.67;;;;;;;13.82;83.66;100256.69;5048939;28;20040;-21
2021/11/08 01:46:18;;;;;;;66.88;39.40;;;;;;;13.86;83.12;100268.59;5030351;28;20045;-21
2021/11/08 01:48:43;;;;;;;61.53;39.50;;;;;;;13.53;84.24;100251.25;5048561;28;20033;-21
2021/11/08 01:51:09;;;;;;;64.70;38.17;;;;;;;13.20;85.37;100243.75;5048632;28;20037;-21
2021/11/08 01:53:34;;;;;;;64.30;37.95;;;;;;;13.33;85.39;100248.09;5048422;28;20504;-22
2021/11/08 01:56:02;;;;;;;64.60;38.83;;;;;;;13.23;85.58;100249.44;5048919;28;20032;-21
2021/11/08 01:58:28;;;;;;;67.40;38.53;;;;;;;13.09;86.06;100248.03;5048399;28;20844;-21
2021/11/08 02:00:54;;;;;;;60.78;35.92;;;;;;;12.83;86.47;100226.00;5030690;28;20317;-21
2021/11/08 02:03:20;;;;;;;63.30;36.75;;;;;;;13.01;86.23;100248.38;5030625;28;20029;-21
2021/11/08 02:05:46;;;;;;;67.03;37.55;;;;;;;12.88;86.06;100224.50;5048220;28;20079;-21
2021/11/08 02:08:12;;;;;;;61.92;34.38;;;;;;;12.89;86.49;100234.97;5048102;28;20033;-21
2021/11/08 02:10:38;;;;;;;60.53;35.45;;;;;;;13.12;85.69;100242.25;5030225;28;20124;-21
2021/11/08 02:13:04;;;;;;;59.20;34.35;;;;;;;13.11;85.86;100235.25;5048199;28;20069;-22
2021/11/08 02:15:29;;;;;;;61.22;35.60;;;;;;;12.96;86.51;100222.31;5048616;28;20566;-21
2021/11/08 02:17:55;;;;;;;60.40;33.78;;;;;;;13.06;85.59;100230.59;5048136;28;20033;-21
2021/11/08 02:20:25;;;;;;;62.38;34.22;;;;;;;13.22;84.37;100221.06;5030126;28;20504;-22
2021/11/08 02:22:51;;;;;;;59.85;35.05;;;;;;;13.29;84.47;100241.56;5030124;28;20033;-21
2021/11/08 02:25:18;;;;;;;72.15;39.42;;;;;;;12.83;86.82;100236.72;5048265;28;20036;-21
2021/11/08 02:27:44;;;;;;;62.47;35.90;;;;;;;13.07;85.59;100228.72;5048011;28;20043;-21
2021/11/08 02:30:10;;;;;;;68.57;37.83;;;;;;;13.35;84.20;100221.91;5047823;28;20025;-21
2021/11/08 02:32:36;;;;;;;67.20;38.50;;;;;;;13.50;84.10;100232.94;5048117;28;20041;-21
2021/11/08 02:35:02;;;;;;;68.65;37.25;;;;;;;13.29;84.73;100238.88;5048005;28;20511;-21
2021/11/08 02:37:28;;;;;;;67.45;37.80;;;;;;;13.57;83.18;100240.88;5048175;28;20025;-21
2021/11/08 02:39:54;;;;;;;63.20;36.90;;;;;;;13.33;84.96;100248.09;5030216;28;20037;-21
2021/11/08 02:42:20;;;;;;;60.65;35.10;;;;;;;13.08;86.33;100241.06;5047899;28;20040;-21
2021/11/08 02:44:46;;;;;;;58.80;35.60;;;;;;;12.97;87.38;100239.97;5049666;28;20051;-21
2021/11/08 02:47:13;;;;;;;63.00;35.28;;;;;;;13.30;85.67;100243.19;5034142;28;20036;-21
2021/11/08 02:49:43;;;;;;;60.15;35.88;;;;;;;13.42;84.95;100235.97;5034413;28;20087;-21
2021/11/08 02:52:10;;;;;;;63.03;35.63;;;;;;;13.18;85.90;100225.25;5051515;28;20593;-21
2021/11/08 02:54:38;;;;;;;62.97;36.35;;;;;;;13.61;84.49;100229.47;5051978;28;20033;-21
2021/11/08 02:57:04;;;;;;;;;;;;;;;13.34;85.52;100236.31;5034769;28;20037;-22
2021/11/08 02:59:31;;;;;;;58.55;33.28;;;;;;;13.31;86.26;100228.78;5051902;28;20003;-21
2021/11/08 03:01:57;;;;;;;64.38;35.67;;;;;;;13.66;84.12;100224.19;5051805;28;20398;-21
2021/11/08 03:04:28;;;;;;;61.35;34.08;;;;;;;13.66;84.14;100221.50;5033715;28;20187;-21
2021/11/08 03:06:53;;;;;;;59.30;32.17;;;;;;;13.39;85.72;100207.81;5018693;28;20114;-21
2021/11/08 03:09:23;;;;;;;60.75;35.53;;;;;;;13.66;85.02;100226.88;5033836;28;20036;-21
2021/11/08 03:11:48;;;;;;;61.75;36.05;;;;;;;13.57;85.70;100214.09;5051444;28;20033;-22
2021/11/08 03:14:16;;;;;;;58.42;34.55;;;;;;;13.44;85.92;100201.72;5051089;28;20052;-21
2021/11/08 03:16:46;;;;;;;59.40;32.97;;;;;;;13.52;85.53;100214.78;5051564;28;20036;-21
2021/11/08 03:19:54;;;;;;;59.35;32.00;;;;;;;13.49;85.35;100209.91;5051736;28;20127;-21
2021/11/08 03:22:02;;;;;;;52.28;30.42;;;;;;;13.73;84.67;100224.09;5043230;28;20044;-21
2021/11/08 03:24:49;;;;;;;53.30;29.17;;;;;;;13.74;84.39;100208.81;5051779;28;20582;-21
2021/11/08 03:27:26;;;;;;;52.90;29.15;;;;;;;13.61;85.10;100212.56;5051064;28;20036;-21
2021/11/08 03:29:52;;;;;;;53.00;28.37;;;;;;;13.60;85.26;100206.38;5051144;28;20025;-21
2021/11/08 03:32:18;;;;;;;52.85;30.05;;;;;;;13.71;84.65;100206.59;5032827;28;20033;-22
2021/11/08 03:34:51;;;;;;;57.35;32.03;;;;;;;13.49;85.90;100214.44;5051227;28;20044;-23
2021/11/08 03:37:18;;;;;;;60.63;31.85;;;;;;;13.32;86.65;100214.31;5051675;28;20036;-21
2021/11/08 03:39:43;;;;;;;63.28;32.10;;;;;;;13.19;87.96;100210.78;5051217;28;20112;-21
2021/11/08 03:42:09;;;;;;;56.80;30.45;;;;;;;13.03;88.51;100195.41;5032987;28;20037;-21
2021/11/08 03:44:35;;;;;;;61.33;32.05;;;;;;;13.25;87.93;100207.19;5050936;28;20484;-21
2021/11/08 03:47:00;;;;;;;59.67;32.35;;;;;;;13.18;88.02;100203.81;5051321;28;20033;-21
2021/11/08 03:49:26;;;;;;;59.88;33.33;;;;;;;13.42;87.04;100196.63;5050995;28;20067;-22
2021/11/08 03:51:52;;;;;;;62.65;32.72;;;;;;;13.27;88.29;100196.25;5051134;28;20745;-21
2021/11/08 03:54:18;;;;;;;68.50;32.90;;;;;;;13.29;88.04;100190.66;5032680;28;20040;-21
2021/11/08 03:56:43;;;;;;;75.53;37.25;;;;;;;13.17;88.55;100186.13;5049767;28;20116;-21
2021/11/08 03:59:09;;;;;;;66.90;35.70;;;;;;;13.34;88.20;100188.13;5050866;28;20063;-21
2021/11/08 04:01:35;;;;;;;66.35;34.13;;;;;;;12.96;89.28;100176.00;5032825;28;20469;-21
2021/11/08 04:04:03;;;;;;;67.40;35.60;;;;;;;13.37;88.66;100183.13;5050455;28;20047;-21
2021/11/08 04:06:29;;;;;;;78.78;37.35;;;;;;;13.29;88.50;100188.00;5050347;28;20484;-21
2021/11/08 04:08:54;;;;;;;74.30;38.60;;;;;;;13.40;87.84;100177.31;5032500;28;20029;-21
2021/11/08 04:11:20;;;;;;;77.07;38.35;;;;;;;13.20;88.99;100201.72;5050478;28;20463;-21
2021/11/08 04:13:46;;;;;;;94.80;40.88;;;;;;;12.84;91.40;100197.38;5050545;28;20052;-21
2021/11/08 04:16:14;;;;;;;92.03;39.28;;;;;;;12.75;91.39;100172.81;5032467;28;20029;-21
2021/11/08 04:18:46;;;;;;;98.25;41.22;;;;;;;12.99;91.00;100181.69;5033149;28;20434;-20
2021/11/08 04:21:11;;;;;;;93.43;41.15;;;;;;;12.83;91.70;100169.81;5050781;28;20136;-21
2021/11/08 04:23:37;;;;;;;95.30;41.13;;;;;;;12.54;92.61;100155.44;5050387;28;20481;-21
2021/11/08 04:26:04;;;;;;;100.53;42.25;;;;;;;12.59;93.11;100160.94;5050234;28;20116;-21
2021/11/08 04:28:29;;;;;;;106.72;47.90;;;;;;;12.60;93.31;100169.75;5048724;28;20507;-22
2021/11/08 04:30:55;;;;;;;95.53;41.53;;;;;;;12.83;92.15;100169.81;5049098;28;20021;-21
2021/11/08 04:36:52;;;;;;;109.63;47.03;;;;;;;12.95;91.71;100171.66;5048900;28;20032;-21
2021/11/08 04:38:54;;;;;;;101.88;44.67;;;;;;;12.97;91.49;100165.03;5032091;28;20049;-21
2021/11/08 04:41:47;;;;;;;103.47;42.67;;;;;;;12.89;91.53;100172.59;5049890;28;20033;-21
2021/11/08 05:30:07;;;;;;;111.32;42.00;;;;;;;12.53;94.68;100179.75;5029170;28;20098;-23
2021/11/08 05:32:36;;;;;;;106.25;40.38;;;;;;;12.51;94.55;100189.88;5028862;28;20044;-21
2021/11/08 05:35:02;;;;;;;111.28;41.65;;;;;;;12.64;94.43;100185.13;5029194;28;20075;-21
2021/11/08 05:37:28;;;;;;;104.28;37.83;;;;;;;12.61;94.38;100192.81;5028703;28;20068;-21
2021/11/08 05:39:57;;;;;;;95.85;38.65;;;;;;;12.46;94.60;100191.38;5028767;28;20116;-21
2021/11/08 05:42:22;;;;;;;106.88;40.97;;;;;;;12.36;95.54;100179.56;5028757;28;20030;-21
2021/11/08 05:44:48;;;;;;;112.18;42.42;;;;;;;12.32;95.90;100167.69;5028944;28;20083;-21
2021/11/08 05:47:14;;;;;;;109.15;43.80;;;;;;;12.36;96.01;100187.59;5028878;28;20037;-21
2021/11/08 05:49:39;;;;;;;101.88;39.58;;;;;;;12.32;96.24;100186.41;5028563;28;20091;-21
2021/11/08 05:52:05;;;;;;;109.68;41.30;;;;;;;12.39;95.65;100190.63;5027282;28;20032;-21
2021/11/08 05:54:31;;;;;;;114.85;42.85;;;;;;;12.31;96.22;100193.63;5028339;28;20037;-21
2021/11/08 06:49:33;;;;;;;98.25;40.35;;;;;;;13.34;90.34;100190.78;5048413;28;20868;-21
2021/11/08 06:51:50;;;;;;;101.68;40.75;;;;;;;13.23;90.73;100190.53;5030819;28;20052;-21
2021/11/08 06:54:17;;;;;;;102.30;40.00;;;;;;;13.23;90.36;100189.72;5047607;28;20022;-21
2021/11/08 06:56:50;;;;;;;96.20;39.25;;;;;;;13.24;90.47;100178.78;5047840;28;20033;-20
2021/11/08 06:59:17;;;;;;;107.65;42.10;;;;;;;13.16;90.72;100162.28;5047853;28;20024;-21
2021/11/08 07:01:44;;;;;;;100.40;41.25;;;;;;;13.58;89.70;100192.41;5047735;28;20028;-21
2021/11/08 07:04:10;;;;;;;98.72;39.63;;;;;;;13.51;89.54;100188.25;5047666;28;20544;-21
2021/11/08 07:06:35;;;;;;;89.88;38.15;;;;;;;13.33;89.50;100170.44;5047748;28;20087;-21
2021/11/08 07:09:01;;;;;;;102.15;44.08;;;;;;;13.21;90.46;100187.28;5047594;28;20588;-21
2021/11/08 07:11:26;;;;;;;108.53;44.42;;;;;;;13.23;90.92;100195.88;5029834;28;20118;-21
2021/11/08 07:13:52;;;;;;;110.40;42.33;;;;;;;13.22;90.86;100191.59;5047736;28;20424;-21
2021/11/08 07:16:17;;;;;;;101.38;41.65;;;;;;;13.38;89.32;100181.25;5047523;28;20082;-21
2021/11/08 07:18:43;;;;;;;94.32;38.67;;;;;;;13.50;89.37;100194.63;5047726;28;20496;-21
2021/11/08 07:21:08;;;;;;;88.22;34.97;;;;;;;13.43;89.21;100187.53;5047837;28;20091;-21
2021/11/08 07:23:34;;;;;;;94.45;38.78;;;;;;;13.52;89.51;100179.13;5047542;28;20037;-21
2021/11/08 07:26:00;;;;;;;92.50;38.58;;;;;;;13.62;88.55;100174.00;5047454;28;20087;-21
2021/11/08 07:28:25;;;;;;;102.57;37.03;;;;;;;13.64;88.11;100186.09;5047501;28;20473;-21
2021/11/08 07:30:51;;;;;;;91.05;38.50;;;;;;;13.51;88.30;100186.38;5047582;28;20025;-20
2021/11/08 07:33:16;;;;;;;95.70;38.67;;;;;;;13.43;89.10;100182.19;5051034;28;20056;-21
2021/11/08 07:35:43;;;;;;;102.47;38.22;;;;;;;13.62;88.67;100192.75;5051165;28;20485;-21
2021/11/08 07:38:09;;;;;;;99.10;39.75;;;;;;;13.33;90.20;100191.84;5050985;28;20500;-21
2021/11/08 07:40:35;;;;;;;106.60;38.38;;;;;;;13.21;91.10;100181.91;5033512;28;20111;-21
2021/11/08 07:43:00;;;;;;;87.82;35.55;;;;;;;13.21;91.05;100184.59;5050890;28;20025;-21
2021/11/08 07:45:27;;;;;;;87.68;34.00;;;;;;;13.35;90.21;100189.75;5050780;28;20032;-21
2021/11/08 07:47:55;;;;;;;87.40;35.40;;;;;;;13.55;89.04;100189.41;5050894;28;20045;-21
2021/11/08 07:50:20;;;;;;;92.38;36.85;;;;;;;13.52;89.26;100171.09;5050885;28;20025;-21
2021/11/08 07:52:46;;;;;;;86.28;36.17;;;;;;;13.50;88.82;100189.28;5050671;28;20075;-21
2021/11/08 07:55:11;;;;;;;100.03;35.20;;;;;;;13.66;88.55;100184.00;5032737;28;20036;-21
2021/11/08 07:57:39;;;;;;;85.60;35.42;;;;;;;13.68;88.53;100181.09;5050813;28;20090;-21
2021/11/08 08:00:07;;;;;;;98.23;37.07;;;;;;;13.94;86.97;100171.69;5050549;28;20286;-22
2021/11/08 08:02:32;;;;;;;96.60;37.72;;;;;;;13.97;86.76;100179.25;5051035;28;20382;-21
2021/11/08 08:04:58;;;;;;;85.35;35.05;;;;;;;13.93;87.06;100178.09;5050465;28;20095;-21
2021/11/08 08:07:23;;;;;;;108.65;45.85;;;;;;;13.99;86.98;100181.69;5050457;28;20033;-21
2021/11/08 08:09:49;;;;;;;99.50;38.42;;;;;;;14.23;86.11;100182.44;5050406;28;20037;-22
2021/11/08 08:12:15;;;;;;;98.25;38.80;;;;;;;13.82;86.93;100171.72;5049976;28;20045;-21
2021/11/08 08:14:40;;;;;;;92.90;36.05;;;;;;;13.58;87.87;100179.00;5050346;28;20072;-21
2021/11/08 08:17:06;;;;;;;89.05;37.65;;;;;;;12.97;92.75;100177.59;5050405;28;20039;-21
2021/11/08 08:19:31;;;;;;;99.65;42.72;;;;;;;12.96;93.25;100173.31;5050339;28;20036;-21
2021/11/08 08:21:57;;;;;;;96.68;37.75;;;;;;;13.25;92.13;100172.38;5050125;28;20100;-21
2021/11/08 08:24:22;;;;;;;96.95;37.85;;;;;;;13.46;91.44;100173.69;5050046;28;20040;-21
2021/11/08 08:26:48;;;;;;;89.18;36.90;;;;;;;13.45;90.54;100163.19;5050230;28;20036;-21
2021/11/08 08:29:14;;;;;;;86.95;37.03;;;;;;;13.73;89.28;100165.13;5049989;28;20041;-22
2021/11/08 08:31:42;;;;;;;86.97;37.65;;;;;;;13.77;87.96;100149.34;5050235;28;20033;-21
2021/11/08 08:34:07;;;;;;;84.45;38.45;;;;;;;13.87;87.01;100165.66;5049873;28;20029;-22
2021/11/08 08:36:33;;;;;;;108.03;41.97;;;;;;;13.48;90.64;100168.06;5049801;28;20033;-21
2021/11/08 08:38:58;;;;;;;86.63;38.42;;;;;;;13.45;91.09;100168.56;5049841;28;20056;-21
2021/11/08 08:41:24;;;;;;;91.15;38.75;;;;;;;13.74;89.38;100152.53;5049865;28;20037;-21
2021/11/08 08:43:50;;;;;;;96.38;41.05;;;;;;;14.01;86.78;100148.22;5049892;28;20110;-22
2021/11/08 08:46:16;;;;;;;90.70;42.22;;;;;;;14.36;85.47;100166.03;5049455;28;20070;-21
2021/11/08 08:48:42;;;;;;;92.40;40.13;;;;;;;14.05;85.92;100164.66;5049647;28;20047;-21
2021/11/08 08:51:08;;;;;;;101.00;42.85;;;;;;;14.20;85.69;100172.16;5049465;28;20063;-22
2021/11/08 08:53:34;;;;;;;97.85;41.45;;;;;;;14.09;86.52;100148.91;5049671;28;20659;-21
2021/11/08 08:56:00;;;;;;;91.82;41.85;;;;;;;14.34;85.93;100160.09;5050353;28;20032;-21
2021/11/08 08:58:26;;;;;;;86.97;39.67;;;;;;;14.00;86.03;100145.81;5049276;28;20166;-21
2021/11/08 09:00:52;;;;;;;89.30;40.95;;;;;;;13.63;88.31;100140.81;5048835;28;20036;-21
2021/11/08 09:03:17;;;;;;;89.25;39.50;;;;;;;13.56;88.88;100150.81;5049366;28;20021;-22
2021/11/08 09:05:44;;;;;;;96.70;45.35;;;;;;;13.57;89.76;100137.19;5049438;28;20115;-21
2021/11/08 09:08:09;;;;;;;86.47;38.78;;;;;;;13.84;88.26;100136.66;5049127;28;20094;-21
2021/11/08 09:10:35;;;;;;;88.32;38.97;;;;;;;13.90;87.55;100142.94;5049295;28;20041;-21
2021/11/08 09:13:01;;;;;;;83.18;37.72;;;;;;;13.83;88.01;100141.19;5049145;28;20061;-21
2021/11/08 09:15:27;;;;;;;87.85;38.67;;;;;;;13.77;87.29;100120.72;5049375;28;20025;-21
2021/11/08 09:17:52;;;;;;;86.55;40.08;;;;;;;13.82;87.65;100138.75;5049230;28;20053;-21
2021/11/08 09:20:18;;;;;;;87.35;36.90;;;;;;;13.90;87.35;100138.38;5031031;28;20036;-21
2021/11/08 09:22:44;;;;;;;92.55;42.00;;;;;;;13.89;88.38;100128.69;5048797;28;20035;-21
2021/11/08 09:25:10;;;;;;;86.72;39.30;;;;;;;13.71;89.54;100137.75;5049096;28;20555;-21
2021/11/08 09:27:36;;;;;;;84.45;37.50;;;;;;;13.95;88.30;100133.09;5048850;28;20581;-21
2021/11/08 09:30:05;;;;;;;91.35;39.92;;;;;;;13.66;90.07;100130.41;5048735;28;20040;-21
2021/11/08 09:32:31;;;;;;;97.05;46.13;;;;;;;13.87;88.81;100133.47;5048437;28;20116;-22
2021/11/08 09:34:56;;;;;;;90.35;38.70;;;;;;;13.95;88.56;100127.72;5048544;28;20448;-21
2021/11/08 09:37:23;;;;;;;90.38;39.55;;;;;;;13.73;89.33;100132.13;5048554;28;20052;-21
2021/11/08 09:39:50;;;;;;;92.45;39.00;;;;;;;13.50;90.06;100116.94;5048754;28;20028;-21
2021/11/08 09:42:16;;;;;;;83.25;37.10;;;;;;;13.69;89.69;100123.78;5055539;28;20039;-21
2021/11/08 09:44:42;;;;;;;89.65;40.47;;;;;;;14.18;87.55;100128.69;5030521;28;20119;-22
2021/11/08 09:47:08;;;;;;;79.10;37.42;;;;;;;14.40;85.08;100115.38;5048755;28;20032;-21
2021/11/08 09:49:33;;;;;;;91.50;37.47;;;;;;;14.73;84.37;100117.31;5048312;28;20028;-22
2021/11/08 09:51:59;;;;;;;75.30;37.47;;;;;;;14.58;83.68;100106.31;5048441;28;20429;-21
2021/11/08 09:54:28;;;;;;;78.78;36.45;;;;;;;14.72;82.55;100121.03;5047268;28;20061;-21
2021/11/08 09:56:54;;;;;;;78.63;38.05;;;;;;;14.94;82.49;100109.56;5048188;28;20033;-21
2021/11/08 09:59:21;;;;;;;81.75;37.70;;;;;;;15.14;81.36;100103.63;5048143;28;20029;-21
2021/11/08 10:01:48;;;;;;;78.22;37.33;;;;;;;14.79;82.87;100094.84;5030503;28;20128;-21
2021/11/08 10:04:14;;;;;;;81.55;36.20;;;;;;;14.38;84.86;100110.25;5047863;28;20029;-22
2021/11/08 10:06:40;;;;;;;81.93;36.90;;;;;;;14.27;85.84;100114.63;5050849;28;20040;-22
2021/11/08 10:09:06;;;;;;;84.95;39.25;;;;;;;14.50;84.82;100093.28;5039042;28;20078;-21
2021/11/08 10:11:32;;;;;;;73.28;36.05;;;;;;;14.31;85.14;100103.44;5057636;28;20039;-22
2021/11/08 10:13:57;;;;;;;79.55;38.15;;;;;;;14.63;84.24;100106.41;5057316;28;20053;-21
2021/11/08 10:16:26;;;;;;;76.65;36.85;;;;;;;14.43;84.78;100090.75;5053227;28;20045;-21
2021/11/08 10:18:56;;;;;;;81.60;37.45;;;;;;;14.31;85.36;100092.72;5030594;28;20039;-21
2021/11/08 10:21:28;;;;;;;78.18;37.17;;;;;;;13.83;88.47;100095.63;5048281;28;20564;-21
2021/11/08 10:23:56;;;;;;;78.55;36.88;;;;;;;14.05;86.84;100079.66;5048080;28;20048;-21
2021/11/08 10:26:24;;;;;;;80.65;38.15;;;;;;;13.77;87.81;100079.69;5030109;28;20033;-21
2021/11/08 10:28:56;;;;;;;82.30;35.95;;;;;;;14.24;86.10;100079.44;5030571;28;20492;-21
2021/11/08 10:31:28;;;;;;;84.18;39.70;;;;;;;14.53;84.98;100074.03;5048276;28;20079;-21
2021/11/08 10:33:54;;;;;;;81.15;37.88;;;;;;;14.38;84.60;100071.88;5048051;28;20503;-21
2021/11/08 10:36:20;;;;;;;93.93;39.10;;;;;;;14.26;85.41;100071.97;5047653;28;20033;-21
2021/11/08 10:38:47;;;;;;;74.88;35.55;;;;;;;14.67;84.90;100059.25;5048054;28;20040;-21
2021/11/08 10:41:26;;;;;;;83.25;37.08;;;;;;;14.74;85.11;100067.13;5048054;28;20037;-21
2021/11/08 10:43:56;;;;;;;78.57;37.03;;;;;;;14.84;83.25;100065.38;5048045;28;20559;-21
2021/11/08 10:46:28;;;;;;;83.00;41.50;;;;;;;15.43;81.60;100061.31;5030419;28;20444;-21
2021/11/08 10:48:57;;;;;;;134.63;93.38;;;;;;;15.49;79.55;100044.19;5047851;28;20064;-21
2021/11/08 10:51:24;;;;;;;221.20;173.35;;;;;;;15.65;78.42;100064.78;5047635;28;20134;-22
2021/11/08 10:53:56;;;;;;;113.65;71.18;;;;;;;15.64;79.28;100067.72;5047704;28;20029;-22
2021/11/08 10:56:37;;;;;;;76.00;37.25;;;;;;;15.19;80.58;100056.19;5056004;28;20074;-21
2021/11/08 10:59:08;;;;;;;83.35;44.35;;;;;;;15.53;79.43;100041.78;5038105;28;20424;-21
2021/11/08 11:01:39;;;;;;;85.82;43.75;;;;;;;15.83;78.21;100039.47;5049129;28;20036;-21
2021/11/08 11:04:05;;;;;;;86.13;44.72;;;;;;;15.84;79.56;100041.06;5047914;28;20033;-22
2021/11/08 11:06:38;;;;;;;70.82;33.50;;;;;;;15.72;79.63;100047.66;5050151;28;20500;-21
2021/11/08 11:09:31;;;;;;;63.38;31.70;;;;;;;15.34;80.32;100035.94;5051620;28;20067;-21
2021/11/08 11:12:26;;;;;;;68.22;37.20;;;;;;;15.38;80.64;100040.53;5030282;28;20583;-22
2021/11/08 11:15:16;;;;;;;77.00;41.10;;;;;;;16.02;77.70;100041.78;5034272;28;20061;-21
2021/11/08 11:17:58;;;;;;;72.90;35.55;;;;;;;16.35;77.13;100029.94;5041343;28;20037;-21
2021/11/08 11:20:27;;;;;;;73.95;36.78;;;;;;;17.05;73.84;100040.63;5033447;28;20114;-20
2021/11/08 11:29:36;;;;;;;70.07;33.33;;;;;;;16.91;72.43;100024.13;5051489;28;20518;-21
2021/11/08 11:32:01;;;;;;;69.88;39.60;;;;;;;16.68;73.38;100017.22;5051410;28;20036;-21
2021/11/08 11:34:27;;;;;;;69.05;37.03;;;;;;;17.52;71.80;100020.84;5016400;28;20048;-21
2021/11/08 11:36:52;;;;;;;74.00;44.20;;;;;;;17.29;73.36;100034.81;5016571;28;20037;-20
2021/11/08 11:39:18;;;;;;;90.82;64.72;;;;;;;17.62;71.25;100022.75;5051340;28;20037;-21
2021/11/08 11:41:45;;;;;;;78.35;46.10;;;;;;;18.03;69.48;100031.75;5051066;28;20040;-21
2021/11/08 11:44:23;;;;;;;77.63;45.90;;;;;;;18.50;68.06;100018.22;5050778;28;20032;-21
2021/11/08 11:46:54;;;;;;;75.00;39.75;;;;;;;19.17;65.78;100003.47;5051177;28;20037;-21
2021/11/08 11:49:19;;;;;;;66.40;36.72;;;;;;;19.58;64.60;100013.25;5051025;28;20032;-21
2021/11/08 11:51:50;;;;;;;56.85;30.77;;;;;;;18.25;67.07;100017.19;5050857;28;20033;-21
2021/11/08 11:54:19;;;;;;;63.53;34.63;;;;;;;18.39;66.84;100006.66;5050593;28;20848;-21
2021/11/08 11:56:45;;;;;;;69.88;42.03;;;;;;;19.13;65.09;99994.28;5050979;28;20566;-22
2021/11/08 11:59:11;;;;;;;69.40;35.72;;;;;;;19.51;63.23;100010.84;5050992;28;20094;-21
2021/11/08 12:01:38;;;;;;;70.80;38.03;;;;;;;19.67;62.57;99993.41;5032952;28;20857;-21
2021/11/08 12:04:05;;;;;;;68.97;35.65;;;;;;;19.67;62.02;99993.41;5051231;28;20863;-21
2021/11/08 12:06:33;;;;;;;77.00;39.63;;;;;;;19.76;62.27;99984.78;5050974;28;20370;-21
2021/11/08 12:09:00;;;;;;;63.17;32.05;;;;;;;19.51;63.30;99999.22;5033469;28;20575;-21
2021/11/08 12:11:28;;;;;;;76.60;41.80;;;;;;;20.14;60.82;100001.22;5032531;28;20827;-21
2021/11/08 12:13:55;;;;;;;56.40;32.60;;;;;;;19.59;61.80;100004.03;5050272;28;20476;-22
2021/11/08 12:16:26;;;;;;;72.85;38.72;;;;;;;18.93;63.84;99992.47;5032165;28;20059;-21
2021/11/08 12:18:52;;;;;;;67.47;37.05;;;;;;;19.79;62.34;100008.53;5050135;28;20029;-22
2021/11/08 12:21:23;;;;;;;57.65;32.40;;;;;;;20.58;60.15;99997.56;5032354;28;20035;-22
2021/11/08 12:23:49;;;;;;;56.67;32.25;;;;;;;20.91;58.89;99997.78;5050156;28;20060;-21
2021/11/08 12:26:25;;;;;;;58.00;33.15;;;;;;;20.46;59.15;100004.19;5050069;28;20553;-21
2021/11/08 12:28:51;;;;;;;52.60;30.17;;;;;;;19.27;62.18;99995.31;5032225;28;20044;-21
2021/11/08 12:31:21;;;;;;;62.83;33.28;;;;;;;19.15;63.49;99996.72;5032207;28;20104;-21
2021/11/08 12:34:00;;;;;;;58.25;31.48;;;;;;;19.84;62.19;99992.28;5049999;28;20079;-21
2021/11/08 12:36:26;;;;;;;62.22;33.25;;;;;;;20.61;59.50;99991.59;5049723;28;20021;-21
2021/11/08 12:38:56;;;;;;;55.30;32.25;;;;;;;20.19;60.03;100001.19;5049891;28;20043;-22
2021/11/08 12:41:46;;;;;;;57.25;33.15;;;;;;;21.36;55.73;100004.50;5049931;28;20053;-21
2021/11/08 12:44:11;;;;;;;59.05;33.45;;;;;;;21.86;54.97;99990.50;5034316;28;20037;-21
2021/11/08 12:46:44;;;;;;;50.08;30.20;;;;;;;22.75;51.56;100002.31;5049805;28;20025;-21
2021/11/08 12:49:20;;;;;;;54.47;30.90;;;;;;;22.87;52.00;99997.97;5049743;28;20033;-22
2021/11/08 12:51:54;;;;;;;53.42;31.23;;;;;;;23.32;50.11;99999.25;5031771;28;20500;-21
2021/11/08 12:54:20;;;;;;;57.28;33.67;;;;;;;23.42;49.84;99975.34;5049693;28;20060;-22
2021/11/08 12:56:47;;;;;;;49.15;29.55;;;;;;;23.79;49.52;99984.31;5049556;28;20076;-21
2021/11/08 12:59:18;;;;;;;50.67;31.20;;;;;;;23.33;50.24;99996.22;5032035;28;20029;-21
2021/11/08 13:01:49;;;;;;;55.42;31.40;;;;;;;23.46;49.65;99997.31;5049441;28;20025;-21
2021/11/08 13:04:17;;;;;;;60.33;32.55;;;;;;;24.28;48.04;99995.38;5031502;28;20120;-21